Time;durP1;ratioP1;P1;durP2;ratioP2;P2;SDS_P1;SDS_P2;PMS_P1;PMS_P2;Temp;Humidity;BMP_temperature;BMP_pressure;BME280_temperature;BME280_humidity;BME280_pressure;Samples;Min_cycle;Max_cycle;Signal;HPM_P1;HPM_P2
2022/10/22 00:00:22;;;;;;;8.20;7.80;;;;;;;12.60;100.00;96546.34;5097305;28;20234;-56
2022/10/22 00:02:47;;;;;;;8.80;8.30;;;;;;;12.53;100.00;96547.59;5095100;28;20180;-54
2022/10/22 00:05:13;;;;;;;8.73;7.93;;;;;;;12.47;100.00;96552.00;5094434;28;20208;-56
2022/10/22 00:07:38;;;;;;;6.90;6.57;;;;;;;12.42;100.00;96547.47;5095059;28;20209;-58
2022/10/22 00:10:05;;;;;;;8.03;7.57;;;;;;;12.38;100.00;96540.31;5095064;28;20551;-56
2022/10/22 00:12:31;;;;;;;5.83;5.53;;;;;;;12.40;100.00;96528.50;5091896;28;20176;-55
2022/10/22 00:14:56;;;;;;;7.33;7.00;;;;;;;12.36;100.00;96530.06;5095279;28;20679;-58
2022/10/22 00:17:22;;;;;;;9.07;8.63;;;;;;;12.39;100.00;96528.75;5094865;28;20283;-58
2022/10/22 00:19:47;;;;;;;9.60;9.03;;;;;;;12.38;100.00;96538.47;5095054;28;20183;-54
2022/10/22 00:22:12;;;;;;;12.17;11.43;;;;;;;12.38;100.00;96533.22;5094332;28;20517;-54
2022/10/22 00:24:38;;;;;;;9.83;9.13;;;;;;;12.36;100.00;96532.69;5094907;28;20632;-56
2022/10/22 00:27:05;;;;;;;7.83;7.43;;;;;;;12.37;100.00;96528.97;5094891;28;20696;-57
2022/10/22 00:29:31;;;;;;;6.87;6.53;;;;;;;12.33;100.00;96517.38;5089272;28;20177;-55
2022/10/22 00:31:56;;;;;;;6.67;6.27;;;;;;;12.31;100.00;96523.94;5086817;28;20188;-56
2022/10/22 00:34:23;;;;;;;7.63;7.13;;;;;;;12.39;100.00;96529.56;5094876;28;20230;-54
2022/10/22 00:36:49;;;;;;;7.33;7.00;;;;;;;12.34;100.00;96531.31;5094482;28;20206;-57
2022/10/22 00:39:17;;;;;;;9.40;8.97;;;;;;;12.34;100.00;96529.50;5094306;28;20663;-56
2022/10/22 00:41:44;;;;;;;10.63;10.07;;;;;;;12.29;100.00;96529.44;5094208;28;20180;-54
2022/10/22 00:44:46;;;;;;;10.17;9.57;;;;;;;12.34;100.00;96531.31;5093617;28;20184;-57
2022/10/22 00:47:13;;;;;;;8.53;7.77;;;;;;;12.32;100.00;96525.50;5091995;28;20264;-57
2022/10/22 00:49:39;;;;;;;8.13;7.73;;;;;;;12.34;100.00;96526.84;5094321;28;20670;-57
2022/10/22 00:52:05;;;;;;;7.43;7.07;;;;;;;12.26;100.00;96529.13;5094223;28;20198;-57
2022/10/22 00:54:30;;;;;;;7.50;7.10;;;;;;;12.36;100.00;96526.63;5094159;28;20183;-56
2022/10/22 00:56:56;;;;;;;8.40;7.90;;;;;;;12.34;100.00;96523.44;5094178;28;20608;-57
2022/10/22 00:59:22;;;;;;;6.70;6.30;;;;;;;12.35;100.00;96525.03;5094019;28;20255;-58
2022/10/22 01:01:49;;;;;;;5.67;5.37;;;;;;;12.29;100.00;96518.13;5094113;28;20198;-57
2022/10/22 01:04:15;;;;;;;6.07;5.77;;;;;;;12.24;100.00;96518.84;5094071;28;20656;-55
2022/10/22 01:06:40;;;;;;;6.07;5.67;;;;;;;12.25;100.00;96523.06;5093499;28;20217;-58
2022/10/22 01:09:15;;;;;;;5.93;5.43;;;;;;;12.22;100.00;96522.75;5094221;28;20161;-56
2022/10/22 01:12:09;;;;;;;8.00;6.17;;;;;;;12.28;100.00;96516.53;5093671;28;20558;-57
2022/10/22 01:15:10;;;;;;;7.20;6.83;;;;;;;12.35;100.00;96525.03;5094076;28;20212;-58
2022/10/22 01:18:03;;;;;;;9.00;8.47;;;;;;;12.31;100.00;96535.25;5076086;28;20207;-57
2022/10/22 01:21:06;;;;;;;13.03;12.37;;;;;;;12.25;100.00;96512.56;5093745;28;20191;-57
2022/10/22 01:24:08;;;;;;;11.93;11.23;;;;;;;12.25;100.00;96506.50;5093639;28;20168;-59
2022/10/22 01:26:52;;;;;;;9.67;9.13;;;;;;;12.13;100.00;96517.13;5093579;28;20294;-58
2022/10/22 01:29:23;;;;;;;10.00;9.50;;;;;;;12.11;100.00;96506.06;5093709;28;20510;-59
2022/10/22 01:31:57;;;;;;;7.83;7.30;;;;;;;12.23;100.00;96504.13;5093368;28;20182;-57
2022/10/22 01:34:24;;;;;;;9.43;8.83;;;;;;;12.23;100.00;96490.97;5093543;28;20535;-58
2022/10/22 01:36:52;;;;;;;8.93;8.53;;;;;;;12.24;100.00;96497.81;5092997;28;20679;-59
2022/10/22 01:39:19;;;;;;;9.43;8.90;;;;;;;12.20;100.00;96490.69;5093396;28;20185;-56
2022/10/22 01:41:45;;;;;;;10.53;10.03;;;;;;;12.19;100.00;96497.78;5093384;28;20621;-58
2022/10/22 01:44:31;;;;;;;10.33;9.67;;;;;;;12.20;100.00;96491.47;5092086;28;20183;-56
2022/10/22 01:47:06;;;;;;;8.87;8.47;;;;;;;12.19;100.00;96486.47;5090956;28;20716;-59
2022/10/22 01:49:44;;;;;;;9.87;9.37;;;;;;;12.18;100.00;96488.28;5091208;28;20195;-54
2022/10/22 01:52:53;;;;;;;7.60;7.10;;;;;;;12.21;100.00;96493.03;5093125;28;20527;-59
2022/10/22 01:55:31;;;;;;;8.60;8.10;;;;;;;12.19;100.00;96491.72;5093046;28;20256;-58
2022/10/22 01:58:08;;;;;;;8.13;7.73;;;;;;;12.23;100.00;96501.50;5093191;28;20203;-58
2022/10/22 02:00:38;;;;;;;7.03;6.70;;;;;;;12.18;100.00;96498.81;5074579;28;20168;-53
2022/10/22 02:03:13;;;;;;;9.20;8.40;;;;;;;12.18;100.00;96496.16;5092630;28;20176;-59
2022/10/22 02:05:48;;;;;;;7.17;6.67;;;;;;;12.21;100.00;96487.78;5091959;28;20639;-58
2022/10/22 02:08:20;;;;;;;7.50;7.07;;;;;;;12.22;100.00;96496.47;5092755;28;20295;-55
2022/10/22 02:10:48;;;;;;;7.60;7.03;;;;;;;12.26;100.00;96513.34;5074343;28;20234;-58
2022/10/22 02:13:22;;;;;;;12.67;11.93;;;;;;;12.23;100.00;96519.09;5092635;28;20530;-58
2022/10/22 02:15:50;;;;;;;10.70;10.10;;;;;;;12.17;100.00;96520.84;5092639;28;20165;-57
2022/10/22 02:18:19;;;;;;;11.03;10.27;;;;;;;12.20;100.00;96527.47;5092947;28;20231;-58
2022/10/22 02:20:45;;;;;;;8.67;8.00;;;;;;;12.23;100.00;96517.25;5092947;28;20179;-57
2022/10/22 02:23:11;;;;;;;12.67;11.90;;;;;;;12.16;100.00;96519.25;5092493;28;20259;-58
2022/10/22 02:25:39;;;;;;;12.30;11.63;;;;;;;12.22;100.00;96525.38;5091952;28;20196;-56
2022/10/22 02:28:12;;;;;;;12.23;11.63;;;;;;;12.20;100.00;96538.78;5092509;28;20204;-57
2022/10/22 02:30:41;;;;;;;13.50;12.80;;;;;;;12.20;100.00;96535.34;5092493;28;20204;-55
2022/10/22 02:33:21;;;;;;;9.53;9.07;;;;;;;12.19;100.00;96515.38;5092747;28;20189;-58
2022/10/22 02:35:48;;;;;;;12.37;11.77;;;;;;;12.22;100.00;96520.13;5092589;28;20173;-58
2022/10/22 02:38:14;;;;;;;11.47;10.87;;;;;;;12.16;100.00;96521.09;5092051;28;20200;-53
2022/10/22 02:40:40;;;;;;;9.60;9.10;;;;;;;12.19;100.00;96524.03;5073927;28;20596;-53
2022/10/22 02:43:06;;;;;;;10.27;9.77;;;;;;;12.02;100.00;96523.28;5091853;28;20318;-58
2022/10/22 02:45:32;;;;;;;8.60;8.00;;;;;;;12.05;100.00;96518.31;5091528;28;20249;-54
2022/10/22 02:47:58;;;;;;;8.50;8.03;;;;;;;12.03;100.00;96520.41;5090625;28;20245;-57
2022/10/22 02:50:23;;;;;;;8.90;8.50;;;;;;;12.06;100.00;96527.81;5092032;28;20183;-56
2022/10/22 02:52:49;;;;;;;7.93;7.53;;;;;;;12.03;100.00;96517.78;5092286;28;20169;-59
2022/10/22 02:55:14;;;;;;;8.17;7.73;;;;;;;12.06;100.00;96519.13;5091846;28;20548;-53
2022/10/22 02:57:39;;;;;;;8.80;8.37;;;;;;;12.04;100.00;96515.94;5092077;28;20208;-57
2022/10/22 03:00:07;;;;;;;9.00;8.60;;;;;;;12.03;100.00;96517.78;5092008;28;20188;-53
2022/10/22 03:02:33;;;;;;;7.80;7.40;;;;;;;12.06;100.00;96524.38;5092218;28;20181;-54
2022/10/22 03:04:59;;;;;;;9.67;9.17;;;;;;;12.06;100.00;96519.91;5091250;28;20275;-55
2022/10/22 03:07:24;;;;;;;9.87;9.37;;;;;;;12.09;100.00;96516.03;5091966;28;20668;-58
2022/10/22 03:09:50;;;;;;;9.30;8.80;;;;;;;12.13;100.00;96516.34;5091597;28;20184;-54
2022/10/22 03:12:15;;;;;;;11.47;10.93;;;;;;;12.12;100.00;96510.28;5091969;28;20172;-58
2022/10/22 03:14:40;;;;;;;12.07;11.47;;;;;;;12.09;100.00;96511.53;5092230;28;20165;-56
2022/10/22 03:17:06;;;;;;;14.57;13.53;;;;;;;12.19;100.00;96507.47;5092167;28;20238;-57
2022/10/22 03:19:31;;;;;;;11.77;11.20;;;;;;;12.14;100.00;96499.53;5092182;28;20268;-57
2022/10/22 03:22:04;;;;;;;9.70;9.30;;;;;;;12.14;100.00;96505.59;5091793;28;20190;-57
2022/10/22 03:24:35;;;;;;;7.30;7.00;;;;;;;12.15;100.00;96509.78;5091574;28;20219;-56
2022/10/22 03:27:00;;;;;;;6.63;6.23;;;;;;;12.14;100.00;96507.41;5091800;28;20240;-58
2022/10/22 03:29:26;;;;;;;6.03;5.63;;;;;;;12.15;100.00;96495.88;5092415;28;20600;-56
2022/10/22 03:31:53;;;;;;;5.27;4.97;;;;;;;12.11;100.00;96490.28;5092293;28;20676;-55
2022/10/22 03:34:18;;;;;;;5.20;4.70;;;;;;;12.15;100.00;96485.38;5092179;28;20260;-56
2022/10/22 03:36:44;;;;;;;5.40;5.10;;;;;;;12.18;100.00;96479.59;5075363;28;20207;-56
2022/10/22 03:39:13;;;;;;;5.47;5.27;;;;;;;12.10;100.00;96483.44;5095702;28;20183;-57
2022/10/22 03:41:39;;;;;;;7.17;4.50;;;;;;;12.16;100.00;96476.41;5094695;28;20168;-58
2022/10/22 03:44:05;;;;;;;4.50;4.30;;;;;;;12.15;100.00;96478.25;5094852;28;20547;-58
2022/10/22 03:46:31;;;;;;;5.83;5.50;;;;;;;12.19;100.00;96487.25;5093631;28;20776;-58
2022/10/22 03:48:56;;;;;;;4.90;4.50;;;;;;;12.17;100.00;96499.84;5095545;28;20188;-57
2022/10/22 03:51:21;;;;;;;4.83;4.63;;;;;;;12.14;100.00;96499.53;5095181;28;20237;-58
2022/10/22 03:53:47;;;;;;;4.50;4.27;;;;;;;12.16;100.00;96500.06;5095593;28;20177;-56
2022/10/22 03:56:13;;;;;;;5.23;4.93;;;;;;;12.08;100.00;96506.56;5095367;28;20179;-57
2022/10/22 03:58:40;;;;;;;5.73;5.43;;;;;;;12.06;100.00;96516.50;5095181;28;20177;-56
2022/10/22 04:01:07;;;;;;;4.80;4.60;;;;;;;12.06;100.00;96506.00;5095556;28;20177;-57
2022/10/22 04:03:33;;;;;;;4.60;4.40;;;;;;;11.99;100.00;96506.16;5094429;28;20180;-56
2022/10/22 04:06:04;;;;;;;6.27;4.70;;;;;;;12.00;100.00;96504.31;5094203;28;20208;-54
2022/10/22 04:08:30;;;;;;;4.83;4.60;;;;;;;11.99;100.00;96506.16;5095145;28;20652;-55
2022/10/22 04:10:55;;;;;;;5.50;5.10;;;;;;;11.95;100.00;96501.63;5095005;28;20177;-55
2022/10/22 04:13:21;;;;;;;4.87;4.57;;;;;;;11.98;100.00;96494.06;5095091;28;20574;-57
2022/10/22 04:15:46;;;;;;;4.80;4.50;;;;;;;12.06;100.00;96496.28;5094437;28;20173;-55
2022/10/22 04:18:11;;;;;;;5.13;4.93;;;;;;;11.98;100.00;96501.16;5094931;28;20200;-56
2022/10/22 04:20:37;;;;;;;4.83;4.53;;;;;;;11.97;100.00;96516.13;5094796;28;20177;-56
2022/10/22 04:23:02;;;;;;;6.37;5.83;;;;;;;11.93;100.00;96530.75;5094888;28;20219;-57
2022/10/22 04:25:28;;;;;;;5.53;5.30;;;;;;;11.96;100.00;96529.50;5076491;28;20237;-56
2022/10/22 04:27:53;;;;;;;5.67;5.20;;;;;;;11.96;100.00;96519.78;5094689;28;20228;-57
2022/10/22 04:30:19;;;;;;;4.90;4.63;;;;;;;11.94;100.00;96518.44;5094902;28;20184;-55
2022/10/22 04:32:44;;;;;;;5.37;5.07;;;;;;;11.82;100.00;96520.34;5093953;28;20173;-52
2022/10/22 04:35:10;;;;;;;6.47;6.07;;;;;;;11.82;100.00;96512.47;5076330;28;20164;-52
2022/10/22 04:37:35;;;;;;;5.83;5.50;;;;;;;11.84;100.00;96513.84;5094404;28;20210;-56
2022/10/22 04:40:00;;;;;;;5.40;4.90;;;;;;;11.83;100.00;96514.06;5094380;28;20176;-56
2022/10/22 04:42:26;;;;;;;5.00;4.80;;;;;;;11.88;100.00;96506.25;5093797;28;20645;-55
2022/10/22 04:44:51;;;;;;;5.27;5.03;;;;;;;11.85;100.00;96507.56;5093922;28;20184;-56
2022/10/22 04:47:16;;;;;;;4.63;4.43;;;;;;;11.83;100.00;96514.06;5091605;28;20601;-57
2022/10/22 04:49:42;;;;;;;5.03;4.73;;;;;;;11.90;100.00;96501.56;5094229;28;20192;-51
2022/10/22 04:52:07;;;;;;;4.87;4.67;;;;;;;11.91;100.00;96513.66;5094410;28;20187;-53
2022/10/22 04:54:33;;;;;;;7.03;6.73;;;;;;;11.92;100.00;96517.88;5075890;28;20225;-56
2022/10/22 04:56:58;;;;;;;8.23;7.83;;;;;;;11.97;100.00;96521.38;5094096;28;20196;-53
2022/10/22 04:59:23;;;;;;;6.43;6.13;;;;;;;11.97;100.00;96529.25;5076147;28;20730;-56
2022/10/22 05:01:49;;;;;;;6.00;5.70;;;;;;;11.99;100.00;96531.63;5093615;28;20180;-52
2022/10/22 05:04:16;;;;;;;12.70;12.10;;;;;;;12.04;100.00;96542.19;5093562;28;20195;-52
2022/10/22 05:06:43;;;;;;;20.10;18.93;;;;;;;11.99;100.00;96542.94;5093986;28;20208;-57
2022/10/22 05:09:14;;;;;;;14.27;13.57;;;;;;;12.00;100.00;96544.53;5094007;28;20179;-54
2022/10/22 05:11:45;;;;;;;10.60;9.97;;;;;;;12.05;100.00;96549.84;5093844;28;20237;-55
2022/10/22 05:14:11;;;;;;;8.27;7.77;;;;;;;12.00;100.00;96548.97;5093461;28;20543;-54
2022/10/22 05:16:37;;;;;;;5.70;5.40;;;;;;;12.00;100.00;96533.22;5093659;28;20204;-54
2022/10/22 05:19:03;;;;;;;4.80;4.60;;;;;;;12.07;100.00;96541.75;5093773;28;20188;-57
2022/10/22 05:21:29;;;;;;;4.67;4.47;;;;;;;12.01;100.00;96535.63;5094064;28;20289;-56
2022/10/22 05:23:56;;;;;;;4.97;4.77;;;;;;;12.03;100.00;96536.19;5092676;28;20203;-56
2022/10/22 05:26:22;;;;;;;5.00;4.63;;;;;;;12.11;100.00;96539.41;5075484;28;20584;-55
2022/10/22 05:28:49;;;;;;;5.00;4.73;;;;;;;12.10;100.00;96549.13;5093363;28;20194;-56
2022/10/22 05:31:15;;;;;;;5.90;5.63;;;;;;;12.09;100.00;96558.84;5093516;28;20641;-56
2022/10/22 05:33:41;;;;;;;5.37;4.43;;;;;;;12.05;100.00;96568.25;5093039;28;20185;-58
2022/10/22 05:36:09;;;;;;;4.23;4.13;;;;;;;12.05;100.00;96565.63;5093378;28;20194;-57
2022/10/22 05:38:35;;;;;;;5.67;5.17;;;;;;;12.03;100.00;96578.22;5093315;28;20621;-57
2022/10/22 05:41:03;;;;;;;6.47;6.07;;;;;;;11.97;100.00;96587.03;5093238;28;20184;-58
2022/10/22 05:43:29;;;;;;;5.97;5.67;;;;;;;11.97;100.00;96592.31;5092910;28;20259;-59
2022/10/22 05:45:54;;;;;;;7.20;6.77;;;;;;;11.94;100.00;96612.97;5090174;28;20283;-58
2022/10/22 05:48:20;;;;;;;6.40;6.10;;;;;;;12.08;100.00;96622.16;5090017;28;20177;-57
2022/10/22 05:50:49;;;;;;;4.73;4.53;;;;;;;12.12;100.00;96632.97;5092999;28;20168;-59
2022/10/22 05:53:17;;;;;;;4.33;4.13;;;;;;;12.11;100.00;96629.53;5092923;28;20697;-58
2022/10/22 05:55:44;;;;;;;4.30;4.00;;;;;;;12.17;100.00;96646.16;5092984;28;20172;-58
2022/10/22 05:58:12;;;;;;;5.87;5.57;;;;;;;12.19;100.00;96639.66;5092712;28;20205;-58
2022/10/22 06:00:38;;;;;;;3.97;3.83;;;;;;;12.17;100.00;96638.28;5092397;28;20183;-58
2022/10/22 06:03:04;;;;;;;5.10;4.80;;;;;;;12.15;100.00;96643.00;5092714;28;20173;-59
2022/10/22 06:05:29;;;;;;;9.93;9.43;;;;;;;12.19;100.00;96646.75;5092227;28;20192;-58
2022/10/22 06:07:56;;;;;;;8.23;7.83;;;;;;;12.25;100.00;96651.03;5085056;28;20782;-57
2022/10/22 06:10:22;;;;;;;11.00;10.50;;;;;;;12.30;100.00;96653.75;5074244;28;20271;-58
2022/10/22 06:12:49;;;;;;;9.07;8.57;;;;;;;12.31;100.00;96653.50;5092484;28;20184;-58
2022/10/22 06:15:16;;;;;;;9.23;8.83;;;;;;;12.38;100.00;96659.38;5092888;28;20625;-59
2022/10/22 06:17:45;;;;;;;13.43;12.50;;;;;;;12.28;100.00;96661.84;5092364;28;20320;-58
2022/10/22 06:20:11;;;;;;;10.37;9.87;;;;;;;12.31;100.00;96664.03;5092797;28;20175;-59
2022/10/22 06:22:37;;;;;;;7.07;6.77;;;;;;;12.45;100.00;96670.53;5092486;28;20664;-59
2022/10/22 06:25:04;;;;;;;9.87;9.23;;;;;;;12.43;100.00;96672.59;5092739;28;20173;-59
2022/10/22 06:27:30;;;;;;;11.80;11.00;;;;;;;12.43;100.00;96677.84;5092663;28;20200;-59
2022/10/22 06:29:55;;;;;;;8.27;7.87;;;;;;;12.48;100.00;96685.81;5092992;28;20176;-59
2022/10/22 06:32:20;;;;;;;8.80;8.40;;;;;;;12.41;100.00;96681.75;5092682;28;20512;-59
2022/10/22 06:34:47;;;;;;;9.30;8.77;;;;;;;12.52;100.00;96688.75;5092274;28;20188;-60
2022/10/22 06:37:14;;;;;;;9.77;9.27;;;;;;;12.53;100.00;96692.19;5092372;28;20200;-60
2022/10/22 06:39:39;;;;;;;8.77;8.37;;;;;;;12.46;100.00;96693.16;5091998;28;20192;-60
2022/10/22 06:42:05;;;;;;;9.30;8.60;;;;;;;12.52;100.00;96699.28;5091981;28;20188;-60
2022/10/22 06:44:31;;;;;;;11.10;10.50;;;;;;;12.42;100.00;96699.13;5091756;28;20214;-58
2022/10/22 06:46:56;;;;;;;6.50;6.07;;;;;;;12.53;100.00;96695.63;5090112;28;20236;-58
2022/10/22 06:49:21;;;;;;;5.67;5.47;;;;;;;12.60;100.00;96703.31;5092520;28;20177;-57
2022/10/22 06:51:52;;;;;;;6.00;5.63;;;;;;;12.55;100.00;96703.25;5089355;28;20164;-58
2022/10/22 06:54:17;;;;;;;6.70;6.30;;;;;;;12.64;100.00;96705.25;5092058;28;20204;-59
2022/10/22 06:56:43;;;;;;;9.00;8.50;;;;;;;12.64;100.00;96714.97;5091778;28;20227;-60
2022/10/22 06:59:09;;;;;;;9.33;8.73;;;;;;;12.62;100.00;96717.81;5092308;28;20177;-56
2022/10/22 07:01:35;;;;;;;9.67;9.17;;;;;;;12.61;100.00;96715.44;5091723;28;20695;-58
2022/10/22 07:04:01;;;;;;;13.10;12.40;;;;;;;12.71;100.00;96719.00;5090310;28;20192;-59
2022/10/22 07:06:28;;;;;;;10.13;9.63;;;;;;;12.83;100.00;96730.22;5092066;28;20220;-57
2022/10/22 07:08:57;;;;;;;9.40;8.93;;;;;;;12.87;100.00;96726.06;5091975;28;20169;-58
2022/10/22 07:11:29;;;;;;;8.90;8.43;;;;;;;12.98;100.00;96734.91;5095271;28;20177;-60
2022/10/22 07:13:57;;;;;;;9.53;8.97;;;;;;;12.75;100.00;96737.75;5095771;28;20173;-59
2022/10/22 07:16:23;;;;;;;13.10;11.93;;;;;;;12.83;100.00;96738.13;5095872;28;20227;-59
2022/10/22 07:18:49;;;;;;;16.63;15.83;;;;;;;12.87;100.00;96746.34;5096346;28;20701;-60
2022/10/22 07:21:17;;;;;;;10.77;10.27;;;;;;;13.02;100.00;96749.19;5095956;28;20179;-59
2022/10/22 07:23:42;;;;;;;9.20;8.77;;;;;;;13.11;100.00;96749.53;5076971;28;20263;-60
2022/10/22 07:26:11;;;;;;;10.40;9.80;;;;;;;13.07;100.00;96751.88;5095116;28;20744;-59
2022/10/22 07:28:38;;;;;;;10.03;9.53;;;;;;;13.15;100.00;96756.72;5095022;28;20193;-59
2022/10/22 07:31:05;;;;;;;8.37;7.87;;;;;;;13.17;100.00;96752.03;5095721;28;20191;-59
2022/10/22 07:33:31;;;;;;;8.33;7.93;;;;;;;13.11;100.00;96755.59;5094792;28;20229;-59
2022/10/22 07:36:04;;;;;;;6.97;6.57;;;;;;;13.08;100.00;96763.19;5095149;28;20184;-59
2022/10/22 07:38:30;;;;;;;11.70;11.00;;;;;;;13.07;100.00;96767.66;5095091;28;20188;-58
2022/10/22 07:40:56;;;;;;;11.83;11.27;;;;;;;13.10;100.00;96759.28;5094733;28;20185;-56
2022/10/22 07:43:22;;;;;;;11.40;10.60;;;;;;;13.18;100.00;96758.91;5095217;28;20254;-57
2022/10/22 07:45:47;;;;;;;8.23;7.83;;;;;;;13.24;100.00;96759.75;5092435;28;20200;-58
2022/10/22 07:48:13;;;;;;;10.47;9.87;;;;;;;13.26;100.00;96771.63;5095105;28;20238;-56
2022/10/22 07:50:38;;;;;;;11.33;10.83;;;;;;;13.29;100.00;96773.78;5094989;28;20205;-58
2022/10/22 07:53:04;;;;;;;10.23;9.53;;;;;;;13.39;100.00;96777.56;5094398;28;20192;-58
2022/10/22 07:55:30;;;;;;;10.80;10.00;;;;;;;13.28;100.00;96782.72;5094972;28;20242;-60
2022/10/22 07:57:55;;;;;;;13.20;12.10;;;;;;;13.40;100.00;96777.34;5095397;28;20212;-59
2022/10/22 08:00:21;;;;;;;14.40;13.50;;;;;;;13.46;100.00;96779.00;5094817;28;20176;-59
2022/10/22 08:02:46;;;;;;;13.90;13.17;;;;;;;13.71;100.00;96786.38;5076377;28;20267;-59
2022/10/22 08:05:12;;;;;;;8.33;7.93;;;;;;;13.68;100.00;96781.63;5095023;28;20227;-58
2022/10/22 08:07:38;;;;;;;8.23;7.83;;;;;;;13.75;100.00;96787.50;5094606;28;20278;-58
2022/10/22 08:10:04;;;;;;;10.60;9.90;;;;;;;13.86;100.00;96791.06;5094884;28;20176;-59
2022/10/22 08:12:30;;;;;;;13.17;12.57;;;;;;;13.70;100.00;96793.53;5094522;28;20185;-55
2022/10/22 08:14:55;;;;;;;16.73;15.73;;;;;;;13.85;100.00;96792.09;5094855;28;20180;-59
2022/10/22 08:17:20;;;;;;;14.10;13.07;;;;;;;13.97;100.00;96795.38;5094336;28;20230;-59
2022/10/22 08:19:46;;;;;;;14.93;13.70;;;;;;;14.08;100.00;96800.53;5094373;28;20183;-58
2022/10/22 08:22:11;;;;;;;12.07;11.23;;;;;;;14.29;100.00;96800.72;5093776;28;20187;-58
2022/10/22 08:24:37;;;;;;;9.30;8.60;;;;;;;14.38;100.00;96802.69;5094468;28;20173;-59
2022/10/22 08:27:02;;;;;;;9.03;8.57;;;;;;;14.40;100.00;96802.44;5094552;28;20204;-58
2022/10/22 08:29:28;;;;;;;9.83;9.23;;;;;;;14.36;100.00;96794.19;5094651;28;20195;-59
2022/10/22 08:31:53;;;;;;;10.37;9.77;;;;;;;14.29;100.00;96795.44;5094125;28;20209;-58
2022/10/22 08:34:19;;;;;;;8.43;7.80;;;;;;;13.97;100.00;96787.47;5094187;28;20180;-58
2022/10/22 08:36:45;;;;;;;9.73;9.23;;;;;;;13.98;100.00;96789.88;5093921;28;20204;-58
2022/10/22 08:39:10;;;;;;;13.70;13.00;;;;;;;13.88;100.00;96791.59;5094204;28;20188;-58
2022/10/22 08:42:21;;;;;;;16.00;15.10;;;;;;;13.89;100.00;96799.25;5093347;28;20204;-59
2022/10/22 08:45:14;;;;;;;9.43;8.83;;;;;;;13.68;100.00;96794.78;5060078;28;20262;-58
2022/10/22 08:47:58;;;;;;;11.70;10.00;;;;;;;13.91;100.00;96788.47;5091971;28;20582;-58
2022/10/22 08:50:34;;;;;;;13.37;12.57;;;;;;;14.14;100.00;96788.19;5094105;28;20633;-59
2022/10/22 08:53:04;;;;;;;11.57;10.97;;;;;;;14.22;100.00;96790.38;5094190;28;20168;-58
2022/10/22 08:55:29;;;;;;;11.43;10.80;;;;;;;14.43;100.00;96794.81;5094064;28;20267;-58
2022/10/22 08:58:17;;;;;;;12.00;11.30;;;;;;;14.62;100.00;96800.50;5094061;28;20256;-58
2022/10/22 09:01:08;;;;;;;11.93;11.17;;;;;;;14.72;100.00;96805.88;5091267;28;20161;-64
2022/10/22 09:04:03;;;;;;;10.60;10.10;;;;;;;14.71;100.00;96803.50;5041025;28;20196;-57
2022/10/22 09:06:40;;;;;;;18.77;17.87;;;;;;;14.76;100.00;96806.97;5046902;28;20244;-58
2022/10/22 09:09:14;;;;;;;18.30;17.40;;;;;;;14.79;100.00;96809.09;5094141;28;20192;-59
2022/10/22 09:11:43;;;;;;;19.03;18.10;;;;;;;14.94;100.00;96805.78;5093739;28;20176;-59
2022/10/22 09:14:14;;;;;;;13.30;12.60;;;;;;;15.49;100.00;96820.38;5093803;28;20252;-62
2022/10/22 09:17:10;;;;;;;16.20;15.30;;;;;;;15.75;100.00;96819.47;5087109;28;20204;-61
2022/10/22 09:20:08;;;;;;;12.53;11.73;;;;;;;15.98;100.00;96821.69;5082980;28;20173;-63
2022/10/22 09:22:54;;;;;;;14.30;13.60;;;;;;;15.98;100.00;96826.16;5088289;28;20624;-63
2022/10/22 09:25:22;;;;;;;10.30;9.77;;;;;;;16.04;100.00;96831.22;5074948;28;20547;-60
2022/10/22 09:27:48;;;;;;;6.40;5.80;;;;;;;15.83;100.00;96823.47;5093432;28;20216;-60
2022/10/22 09:30:23;;;;;;;6.07;5.57;;;;;;;15.88;100.00;96832.22;5091791;28;20176;-59
2022/10/22 09:33:15;;;;;;;8.23;7.73;;;;;;;16.00;100.00;96826.69;5090967;28;20183;-61
2022/10/22 09:35:50;;;;;;;16.90;16.07;;;;;;;15.95;100.00;96835.41;5085527;28;20169;-59
2022/10/22 09:38:19;;;;;;;11.67;11.07;;;;;;;15.86;100.00;96833.53;5085673;28;20207;-61
2022/10/22 09:40:50;;;;;;;10.37;9.87;;;;;;;15.94;100.00;96827.75;5092516;28;20208;-57
2022/10/22 09:43:17;;;;;;;15.90;14.97;;;;;;;15.97;100.00;96840.44;5093043;28;20691;-56
2022/10/22 09:45:44;;;;;;;13.07;9.90;;;;;;;16.12;100.00;96828.06;5091172;28;20247;-58
2022/10/22 09:48:34;;;;;;;12.67;11.90;;;;;;;16.18;100.00;96842.88;5070827;28;20715;-56
2022/10/22 09:51:13;;;;;;;8.67;8.27;;;;;;;16.09;100.00;96846.31;5073227;28;20256;-58
2022/10/22 09:53:44;;;;;;;5.90;5.57;;;;;;;16.25;100.00;96842.66;5074322;28;20276;-58
2022/10/22 09:56:22;;;;;;;6.43;5.87;;;;;;;16.31;100.00;96843.44;5073973;28;20183;-57
2022/10/22 09:58:49;;;;;;;4.07;3.77;;;;;;;16.41;100.00;96846.91;5087095;28;20178;-58
2022/10/22 10:01:25;;;;;;;5.87;5.57;;;;;;;16.40;100.00;96853.25;5072105;28;20179;-59
2022/10/22 10:03:50;;;;;;;8.60;8.23;;;;;;;16.45;100.00;96855.09;5066216;28;20701;-60
2022/10/22 10:06:21;;;;;;;3.88;3.65;;;;;;;16.39;100.00;96854.31;5072089;28;20236;-59
2022/10/22 10:08:47;;;;;;;6.50;6.00;;;;;;;16.51;100.00;96854.06;5072780;28;20533;-60
2022/10/22 10:11:18;;;;;;;3.87;3.67;;;;;;;16.66;100.00;96858.63;5071769;28;20185;-60
2022/10/22 10:14:05;;;;;;;5.10;4.60;;;;;;;16.76;100.00;96864.72;5078380;28;20168;-59
2022/10/22 10:16:58;;;;;;;4.97;4.67;;;;;;;16.70;100.00;96863.13;5092153;28;20638;-56
2022/10/22 10:19:43;;;;;;;7.30;6.80;;;;;;;16.83;100.00;96864.47;5078023;28;20640;-59
2022/10/22 10:22:26;;;;;;;10.32;9.80;;;;;;;16.87;100.00;96870.81;5092905;28;20176;-59
2022/10/22 10:25:19;;;;;;;10.05;9.52;;;;;;;17.00;100.00;96864.97;5092716;28;20234;-57
2022/10/22 10:27:58;;;;;;;19.58;18.55;;;;;;;17.03;100.00;96867.13;5092035;28;20230;-58
2022/10/22 10:30:23;;;;;;;32.28;29.98;;;;;;;17.08;100.00;96867.13;5092461;28;20227;-60
2022/10/22 10:33:04;;;;;;;19.38;18.35;;;;;;;17.15;100.00;96874.78;5091989;28;20628;-61
2022/10/22 10:35:44;;;;;;;20.17;19.20;;;;;;;17.11;100.00;96882.47;5092397;28;20180;-60
2022/10/22 10:38:38;;;;;;;20.88;19.73;;;;;;;17.24;100.00;96873.19;5086739;28;20208;-61
2022/10/22 10:41:17;;;;;;;33.78;31.67;;;;;;;17.11;100.00;96884.34;5088995;28;20201;-59
2022/10/22 10:44:09;;;;;;;26.55;25.08;;;;;;;17.20;100.00;96890.69;5091524;28;20595;-61
2022/10/22 10:46:54;;;;;;;17.45;16.55;;;;;;;17.36;100.00;96879.81;5077194;28;20331;-60
2022/10/22 10:49:24;;;;;;;13.93;13.05;;;;;;;17.34;100.00;96879.28;5092601;28;20187;-60
2022/10/22 10:52:03;;;;;;;12.10;11.10;;;;;;;17.57;100.00;96888.50;5091994;28;20230;-59
2022/10/22 10:54:53;;;;;;;52.58;49.83;;;;;;;17.82;96.22;96885.84;5092563;28;20168;-58
2022/10/22 10:57:21;;;;;;;47.88;45.10;;;;;;;18.00;95.48;96881.03;5091878;28;21008;-59
2022/10/22 11:00:15;;;;;;;26.95;25.40;;;;;;;17.98;95.80;96883.94;5091942;28;20254;-59
2022/10/22 11:03:03;;;;;;;17.83;16.83;;;;;;;17.79;91.00;96886.38;5085383;28;20193;-59
2022/10/22 11:05:49;;;;;;;39.33;37.28;;;;;;;17.93;88.59;96886.59;5077243;28;20249;-60
2022/10/22 11:08:31;;;;;;;35.88;33.97;;;;;;;17.83;88.48;96884.75;5091851;28;20703;-60
2022/10/22 11:11:19;;;;;;;29.52;27.85;;;;;;;17.77;87.52;96885.88;5092006;28;20177;-59
2022/10/22 11:14:04;;;;;;;41.47;39.17;;;;;;;18.01;87.69;96886.03;5091818;28;20173;-60
2022/10/22 11:16:43;;;;;;;55.88;52.85;;;;;;;17.93;87.91;96883.16;5091896;28;20199;-61
2022/10/22 11:19:19;;;;;;;74.55;70.60;;;;;;;18.00;87.48;96891.63;5092029;28;20255;-59
2022/10/22 11:21:50;;;;;;;29.70;28.08;;;;;;;17.86;83.61;96872.84;5091919;28;20203;-59
2022/10/22 11:24:24;;;;;;;20.42;19.25;;;;;;;17.87;85.15;96877.06;5092021;28;20600;-59
2022/10/22 11:27:22;;;;;;;9.27;8.82;;;;;;;17.85;83.66;96881.84;5091779;28;20226;-59
2022/10/22 11:29:59;;;;;;;10.38;9.77;;;;;;;17.91;82.30;96883.41;5073597;28;20220;-59
2022/10/22 11:32:26;;;;;;;13.98;13.02;;;;;;;18.01;77.41;96875.41;5091877;28;20176;-58
2022/10/22 11:35:04;;;;;;;34.50;32.55;;;;;;;17.99;80.11;96876.78;5091842;28;20545;-56